CYHU/YHU METAR and TAF weather

Enter ICAO airport designator
Station Type Date Time Source
CYHU METAR 2020/11/25 22:00 UTC NOAA

CYHU 252200Z AUTO 35005KT 7SM FEW042 OVC065 M01/M01 A3014 RMK SLP208


Station Type Date Time Source
CYHU Decoded METAR 2020/11/25 22:00 UTC NOAA

Saint Hubert Airport , Canada (CYHU) 45-31N 073-25W
Nov 25, 2020 - 05:00 PM EST / 2020.11.25 2200 UTC
Wind: from the N (350 degrees) at 6 MPH (5 KT):0
Visibility: 7 mile(s):0
Sky conditions: overcast
Temperature: 30 F (-1 C)
Windchill: 23 F (-5 C):1
Dew Point: 30 F (-1 C)
Relative Humidity: 100%
Pressure (altimeter): 30.14 in. Hg (1020 hPa)
ob: CYHU 252200Z AUTO 35005KT 7SM FEW042 OVC065 M01/M01 A3014 RMK SLP208
cycle: 22

Station Type Date Time Source
CYHU TAF 2020/11/25 18:42 UTC NOAA

TAF CYHU 251740Z 2518/2618 17012KT 11/2SM -SN BKN007 OVC040
TEMPO 2518/2519 6SM -SN FEW007 OVC040
FM251900 17012KT P6SM OVC040
TEMPO 2519/2523 5SM -SHSNRA
BECMG 2520/2521 VRB03KT
FM260700 04008KT 1SM -RA BR OVC003
FM261400 09008KT 6SM -RA -DZ BR OVC008
RMK FCST BASED ON AUTO OBS. NXT FCST BY 260000Z

Example: see airport list